sensor_id;sensor_type;location;lat;lon;timestamp;P1;durP1;ratioP1;P2;durP2;ratioP2
13197;SDS011;6664;52.514;13.440;2022-10-26T00:01:09;14.30;;;6.30;;
13197;SDS011;6664;52.514;13.440;2022-10-26T00:03:58;10.83;;;6.47;;
13197;SDS011;6664;52.514;13.440;2022-10-26T00:06:44;10.10;;;5.80;;
13197;SDS011;6664;52.514;13.440;2022-10-26T00:09:29;8.83;;;6.60;;
13197;SDS011;6664;52.514;13.440;2022-10-26T00:12:17;15.33;;;7.00;;
13197;SDS011;6664;52.514;13.440;2022-10-26T00:15:05;12.07;;;6.47;;
13197;SDS011;6664;52.514;13.440;2022-10-26T00:17:55;6.90;;;5.63;;
13197;SDS011;6664;52.514;13.440;2022-10-26T00:20:42;8.40;;;5.60;;
13197;SDS011;6664;52.514;13.440;2022-10-26T00:23:27;14.33;;;5.83;;
13197;SDS011;6664;52.514;13.440;2022-10-26T00:26:13;8.70;;;5.13;;
13197;SDS011;6664;52.514;13.440;2022-10-26T00:28:58;13.80;;;5.80;;
13197;SDS011;6664;52.514;13.440;2022-10-26T00:31:47;6.13;;;4.90;;
13197;SDS011;6664;52.514;13.440;2022-10-26T00:34:32;5.90;;;4.73;;
13197;SDS011;6664;52.514;13.440;2022-10-26T00:37:18;8.40;;;5.57;;
13197;SDS011;6664;52.514;13.440;2022-10-26T00:40:03;10.80;;;6.10;;
13197;SDS011;6664;52.514;13.440;2022-10-26T00:42:49;11.60;;;4.73;;
13197;SDS011;6664;52.514;13.440;2022-10-26T00:45:36;8.77;;;6.30;;
13197;SDS011;6664;52.514;13.440;2022-10-26T00:48:23;10.87;;;6.10;;
13197;SDS011;6664;52.514;13.440;2022-10-26T00:51:30;8.93;;;6.40;;
13197;SDS011;6664;52.514;13.440;2022-10-26T00:54:18;10.80;;;5.67;;
13197;SDS011;6664;52.514;13.440;2022-10-26T00:57:04;9.63;;;6.30;;
13197;SDS011;6664;52.514;13.440;2022-10-26T00:59:50;7.80;;;5.70;;
13197;SDS011;6664;52.514;13.440;2022-10-26T01:02:38;8.80;;;6.57;;
13197;SDS011;6664;52.514;13.440;2022-10-26T01:05:29;9.60;;;6.10;;
13197;SDS011;6664;52.514;13.440;2022-10-26T01:08:15;10.10;;;6.03;;
13197;SDS011;6664;52.514;13.440;2022-10-26T01:11:02;9.27;;;5.23;;
13197;SDS011;6664;52.514;13.440;2022-10-26T01:13:47;7.97;;;5.30;;
13197;SDS011;6664;52.514;13.440;2022-10-26T01:16:41;10.77;;;6.23;;
13197;SDS011;6664;52.514;13.440;2022-10-26T01:22:56;7.47;;;5.60;;
13197;SDS011;6664;52.514;13.440;2022-10-26T01:31:51;12.63;;;6.60;;
13197;SDS011;6664;52.514;13.440;2022-10-26T01:34:54;9.10;;;5.63;;
13197;SDS011;6664;52.514;13.440;2022-10-26T01:37:53;9.00;;;5.57;;
13197;SDS011;6664;52.514;13.440;2022-10-26T01:41:12;17.53;;;5.53;;
13197;SDS011;6664;52.514;13.440;2022-10-26T01:44:03;7.30;;;5.57;;
13197;SDS011;6664;52.514;13.440;2022-10-26T01:46:53;8.47;;;5.57;;
13197;SDS011;6664;52.514;13.440;2022-10-26T01:49:54;9.83;;;5.83;;
13197;SDS011;6664;52.514;13.440;2022-10-26T01:52:41;12.73;;;5.97;;
13197;SDS011;6664;52.514;13.440;2022-10-26T01:55:42;12.17;;;6.60;;
13197;SDS011;6664;52.514;13.440;2022-10-26T02:04:54;7.57;;;5.03;;
13197;SDS011;6664;52.514;13.440;2022-10-26T02:14:29;8.90;;;5.70;;
13197;SDS011;6664;52.514;13.440;2022-10-26T02:21:00;10.87;;;7.40;;
13197;SDS011;6664;52.514;13.440;2022-10-26T02:23:50;8.10;;;6.13;;
13197;SDS011;6664;52.514;13.440;2022-10-26T02:26:39;9.03;;;5.37;;
13197;SDS011;6664;52.514;13.440;2022-10-26T02:29:30;15.23;;;6.23;;
13197;SDS011;6664;52.514;13.440;2022-10-26T02:32:17;10.27;;;6.17;;
13197;SDS011;6664;52.514;13.440;2022-10-26T02:35:04;12.57;;;6.97;;
13197;SDS011;6664;52.514;13.440;2022-10-26T02:37:51;9.07;;;6.33;;
13197;SDS011;6664;52.514;13.440;2022-10-26T02:40:37;9.50;;;6.03;;
13197;SDS011;6664;52.514;13.440;2022-10-26T02:43:23;15.37;;;6.43;;
13197;SDS011;6664;52.514;13.440;2022-10-26T02:46:10;17.40;;;6.93;;
13197;SDS011;6664;52.514;13.440;2022-10-26T02:49:00;6.83;;;5.87;;
13197;SDS011;6664;52.514;13.440;2022-10-26T02:58:29;11.63;;;6.67;;
13197;SDS011;6664;52.514;13.440;2022-10-26T03:01:18;7.57;;;6.23;;
13197;SDS011;6664;52.514;13.440;2022-10-26T03:04:07;9.60;;;6.90;;
13197;SDS011;6664;52.514;13.440;2022-10-26T03:06:55;8.83;;;6.60;;
13197;SDS011;6664;52.514;13.440;2022-10-26T03:09:44;12.77;;;6.10;;
13197;SDS011;6664;52.514;13.440;2022-10-26T03:12:29;10.13;;;6.87;;
13197;SDS011;6664;52.514;13.440;2022-10-26T03:15:15;13.93;;;6.80;;
13197;SDS011;6664;52.514;13.440;2022-10-26T03:18:00;10.97;;;6.70;;
13197;SDS011;6664;52.514;13.440;2022-10-26T03:20:46;12.00;;;6.77;;
13197;SDS011;6664;52.514;13.440;2022-10-26T03:23:31;13.03;;;6.70;;
13197;SDS011;6664;52.514;13.440;2022-10-26T03:26:17;10.07;;;6.90;;
13197;SDS011;6664;52.514;13.440;2022-10-26T03:29:03;16.53;;;7.27;;
13197;SDS011;6664;52.514;13.440;2022-10-26T03:31:48;13.00;;;6.10;;
13197;SDS011;6664;52.514;13.440;2022-10-26T03:34:37;11.43;;;6.47;;
13197;SDS011;6664;52.514;13.440;2022-10-26T03:37:25;9.93;;;6.40;;
13197;SDS011;6664;52.514;13.440;2022-10-26T03:40:11;9.80;;;7.30;;
13197;SDS011;6664;52.514;13.440;2022-10-26T03:42:57;11.30;;;6.33;;
13197;SDS011;6664;52.514;13.440;2022-10-26T03:45:45;9.37;;;6.17;;
13197;SDS011;6664;52.514;13.440;2022-10-26T03:48:30;9.90;;;6.67;;
13197;SDS011;6664;52.514;13.440;2022-10-26T03:51:16;15.90;;;6.93;;
13197;SDS011;6664;52.514;13.440;2022-10-26T03:54:02;11.50;;;6.30;;
13197;SDS011;6664;52.514;13.440;2022-10-26T03:56:50;13.80;;;6.90;;
13197;SDS011;6664;52.514;13.440;2022-10-26T03:59:39;11.77;;;7.27;;
13197;SDS011;6664;52.514;13.440;2022-10-26T04:02:25;11.30;;;7.20;;
13197;SDS011;6664;52.514;13.440;2022-10-26T04:05:10;21.80;;;6.20;;
13197;SDS011;6664;52.514;13.440;2022-10-26T04:08:00;8.30;;;6.53;;
13197;SDS011;6664;52.514;13.440;2022-10-26T04:10:47;12.57;;;6.70;;
13197;SDS011;6664;52.514;13.440;2022-10-26T04:13:37;8.87;;;6.17;;
13197;SDS011;6664;52.514;13.440;2022-10-26T04:16:22;12.90;;;5.97;;
13197;SDS011;6664;52.514;13.440;2022-10-26T04:19:12;9.90;;;7.10;;
13197;SDS011;6664;52.514;13.440;2022-10-26T04:21:59;10.73;;;7.10;;
13197;SDS011;6664;52.514;13.440;2022-10-26T04:24:45;9.70;;;5.80;;
13197;SDS011;6664;52.514;13.440;2022-10-26T04:27:35;10.83;;;6.43;;
13197;SDS011;6664;52.514;13.440;2022-10-26T04:30:24;20.43;;;7.10;;
13197;SDS011;6664;52.514;13.440;2022-10-26T04:33:10;11.00;;;7.10;;
13197;SDS011;6664;52.514;13.440;2022-10-26T04:35:59;13.10;;;6.40;;
13197;SDS011;6664;52.514;13.440;2022-10-26T04:38:47;11.63;;;7.03;;
13197;SDS011;6664;52.514;13.440;2022-10-26T04:41:33;10.20;;;6.40;;
13197;SDS011;6664;52.514;13.440;2022-10-26T04:44:18;14.87;;;7.30;;
13197;SDS011;6664;52.514;13.440;2022-10-26T04:47:04;10.10;;;7.00;;
13197;SDS011;6664;52.514;13.440;2022-10-26T04:49:51;10.07;;;6.67;;
13197;SDS011;6664;52.514;13.440;2022-10-26T04:52:39;13.77;;;7.00;;
13197;SDS011;6664;52.514;13.440;2022-10-26T04:55:25;12.03;;;6.77;;
13197;SDS011;6664;52.514;13.440;2022-10-26T04:58:10;11.80;;;6.93;;
13197;SDS011;6664;52.514;13.440;2022-10-26T05:00:56;8.90;;;5.87;;
13197;SDS011;6664;52.514;13.440;2022-10-26T05:03:41;17.73;;;8.13;;
13197;SDS011;6664;52.514;13.440;2022-10-26T05:06:27;12.27;;;6.00;;
13197;SDS011;6664;52.514;13.440;2022-10-26T05:09:14;13.57;;;7.00;;
13197;SDS011;6664;52.514;13.440;2022-10-26T05:11:59;10.23;;;7.33;;
13197;SDS011;6664;52.514;13.440;2022-10-26T05:14:44;20.13;;;7.27;;
13197;SDS011;6664;52.514;13.440;2022-10-26T05:17:32;11.33;;;6.13;;
13197;SDS011;6664;52.514;13.440;2022-10-26T05:20:20;8.60;;;5.80;;
13197;SDS011;6664;52.514;13.440;2022-10-26T05:23:12;10.13;;;5.70;;
13197;SDS011;6664;52.514;13.440;2022-10-26T05:26:02;12.53;;;6.00;;
13197;SDS011;6664;52.514;13.440;2022-10-26T05:28:48;7.70;;;5.40;;
13197;SDS011;6664;52.514;13.440;2022-10-26T05:31:37;10.93;;;6.80;;
13197;SDS011;6664;52.514;13.440;2022-10-26T05:34:23;9.37;;;5.60;;
13197;SDS011;6664;52.514;13.440;2022-10-26T05:37:08;16.13;;;5.70;;
13197;SDS011;6664;52.514;13.440;2022-10-26T05:39:54;7.13;;;5.60;;
13197;SDS011;6664;52.514;13.440;2022-10-26T05:42:39;9.33;;;6.80;;
13197;SDS011;6664;52.514;13.440;2022-10-26T05:45:25;9.47;;;5.50;;
13197;SDS011;6664;52.514;13.440;2022-10-26T05:48:10;9.47;;;5.77;;
13197;SDS011;6664;52.514;13.440;2022-10-26T05:51:00;9.40;;;5.90;;
13197;SDS011;6664;52.514;13.440;2022-10-26T05:53:46;10.57;;;6.30;;
13197;SDS011;6664;52.514;13.440;2022-10-26T05:56:35;13.70;;;5.67;;
13197;SDS011;6664;52.514;13.440;2022-10-26T05:59:22;7.50;;;5.73;;
13197;SDS011;6664;52.514;13.440;2022-10-26T06:02:22;13.63;;;6.13;;
13197;SDS011;6664;52.514;13.440;2022-10-26T06:05:13;17.63;;;7.10;;
13197;SDS011;6664;52.514;13.440;2022-10-26T06:08:07;13.20;;;6.30;;
13197;SDS011;6664;52.514;13.440;2022-10-26T06:10:56;11.23;;;6.50;;
13197;SDS011;6664;52.514;13.440;2022-10-26T06:13:43;8.87;;;6.00;;
13197;SDS011;6664;52.514;13.440;2022-10-26T06:16:38;10.93;;;6.70;;
13197;SDS011;6664;52.514;13.440;2022-10-26T06:23:18;15.30;;;6.57;;
13197;SDS011;6664;52.514;13.440;2022-10-26T06:25:54;20.43;;;5.53;;
13197;SDS011;6664;52.514;13.440;2022-10-26T06:29:13;10.50;;;5.80;;
13197;SDS011;6664;52.514;13.440;2022-10-26T06:32:20;10.43;;;6.50;;
13197;SDS011;6664;52.514;13.440;2022-10-26T06:35:14;10.57;;;5.53;;
13197;SDS011;6664;52.514;13.440;2022-10-26T06:38:22;9.97;;;6.43;;
13197;SDS011;6664;52.514;13.440;2022-10-26T06:41:12;13.33;;;6.67;;
13197;SDS011;6664;52.514;13.440;2022-10-26T06:43:59;11.50;;;5.90;;
13197;SDS011;6664;52.514;13.440;2022-10-26T06:46:49;9.93;;;6.07;;
13197;SDS011;6664;52.514;13.440;2022-10-26T06:49:38;10.67;;;6.07;;
13197;SDS011;6664;52.514;13.440;2022-10-26T06:52:48;11.40;;;7.50;;
13197;SDS011;6664;52.514;13.440;2022-10-26T06:55:50;11.93;;;6.90;;
13197;SDS011;6664;52.514;13.440;2022-10-26T06:58:36;10.60;;;7.00;;
13197;SDS011;6664;52.514;13.440;2022-10-26T07:01:26;11.20;;;6.77;;
13197;SDS011;6664;52.514;13.440;2022-10-26T07:04:14;10.03;;;6.33;;
13197;SDS011;6664;52.514;13.440;2022-10-26T07:07:00;15.30;;;7.27;;
13197;SDS011;6664;52.514;13.440;2022-10-26T07:09:45;10.57;;;6.43;;
13197;SDS011;6664;52.514;13.440;2022-10-26T07:12:35;11.97;;;6.73;;
13197;SDS011;6664;52.514;13.440;2022-10-26T07:15:21;12.27;;;6.90;;
13197;SDS011;6664;52.514;13.440;2022-10-26T07:18:07;12.70;;;8.17;;
13197;SDS011;6664;52.514;13.440;2022-10-26T07:20:53;13.13;;;7.47;;
13197;SDS011;6664;52.514;13.440;2022-10-26T07:23:38;16.30;;;7.43;;
13197;SDS011;6664;52.514;13.440;2022-10-26T07:26:24;16.50;;;7.97;;
13197;SDS011;6664;52.514;13.440;2022-10-26T07:29:11;14.07;;;7.80;;
13197;SDS011;6664;52.514;13.440;2022-10-26T07:31:57;12.60;;;7.50;;
13197;SDS011;6664;52.514;13.440;2022-10-26T07:34:43;10.13;;;7.33;;
13197;SDS011;6664;52.514;13.440;2022-10-26T07:37:30;13.47;;;7.60;;
13197;SDS011;6664;52.514;13.440;2022-10-26T07:40:16;12.10;;;7.43;;
13197;SDS011;6664;52.514;13.440;2022-10-26T07:43:02;17.87;;;7.97;;
13197;SDS011;6664;52.514;13.440;2022-10-26T07:45:50;16.90;;;7.07;;
13197;SDS011;6664;52.514;13.440;2022-10-26T07:48:36;12.27;;;7.70;;
13197;SDS011;6664;52.514;13.440;2022-10-26T07:51:23;11.80;;;7.43;;
13197;SDS011;6664;52.514;13.440;2022-10-26T07:54:09;13.03;;;7.73;;
13197;SDS011;6664;52.514;13.440;2022-10-26T07:56:55;12.33;;;8.40;;
13197;SDS011;6664;52.514;13.440;2022-10-26T07:59:43;10.53;;;7.60;;
13197;SDS011;6664;52.514;13.440;2022-10-26T08:02:33;10.33;;;8.00;;
13197;SDS011;6664;52.514;13.440;2022-10-26T08:05:22;9.20;;;6.97;;
13197;SDS011;6664;52.514;13.440;2022-10-26T08:08:08;13.23;;;8.40;;
13197;SDS011;6664;52.514;13.440;2022-10-26T08:10:53;11.43;;;7.53;;
13197;SDS011;6664;52.514;13.440;2022-10-26T08:13:39;14.10;;;8.20;;
13197;SDS011;6664;52.514;13.440;2022-10-26T08:16:24;8.70;;;6.90;;
13197;SDS011;6664;52.514;13.440;2022-10-26T08:19:10;14.20;;;7.23;;
13197;SDS011;6664;52.514;13.440;2022-10-26T08:21:56;10.13;;;6.33;;
13197;SDS011;6664;52.514;13.440;2022-10-26T08:24:41;13.73;;;7.73;;
13197;SDS011;6664;52.514;13.440;2022-10-26T08:27:33;10.73;;;6.43;;
13197;SDS011;6664;52.514;13.440;2022-10-26T08:30:19;13.70;;;7.50;;
13197;SDS011;6664;52.514;13.440;2022-10-26T08:33:06;13.50;;;7.57;;
13197;SDS011;6664;52.514;13.440;2022-10-26T08:35:54;14.00;;;7.30;;
13197;SDS011;6664;52.514;13.440;2022-10-26T08:38:40;9.77;;;8.17;;
13197;SDS011;6664;52.514;13.440;2022-10-26T08:41:34;12.20;;;7.87;;
13197;SDS011;6664;52.514;13.440;2022-10-26T08:47:29;18.47;;;8.10;;
13197;SDS011;6664;52.514;13.440;2022-10-26T08:50:29;9.97;;;6.70;;
13197;SDS011;6664;52.514;13.440;2022-10-26T09:02:38;11.73;;;7.60;;
13197;SDS011;6664;52.514;13.440;2022-10-26T09:05:27;12.07;;;6.90;;
13197;SDS011;6664;52.514;13.440;2022-10-26T09:22:19;14.73;;;7.20;;
13197;SDS011;6664;52.514;13.440;2022-10-26T09:25:11;12.40;;;8.40;;
13197;SDS011;6664;52.514;13.440;2022-10-26T09:28:03;14.67;;;9.00;;
13197;SDS011;6664;52.514;13.440;2022-10-26T09:30:49;14.30;;;8.60;;
13197;SDS011;6664;52.514;13.440;2022-10-26T09:33:41;17.50;;;9.63;;
13197;SDS011;6664;52.514;13.440;2022-10-26T09:36:27;15.60;;;9.23;;
13197;SDS011;6664;52.514;13.440;2022-10-26T09:42:32;11.87;;;8.50;;
13197;SDS011;6664;52.514;13.440;2022-10-26T09:48:43;19.90;;;8.63;;
13197;SDS011;6664;52.514;13.440;2022-10-26T09:51:37;16.70;;;9.23;;
13197;SDS011;6664;52.514;13.440;2022-10-26T09:54:26;12.40;;;8.00;;
13197;SDS011;6664;52.514;13.440;2022-10-26T09:57:15;11.70;;;8.33;;
13197;SDS011;6664;52.514;13.440;2022-10-26T10:00:03;14.07;;;8.73;;
13197;SDS011;6664;52.514;13.440;2022-10-26T10:02:50;11.37;;;7.67;;
13197;SDS011;6664;52.514;13.440;2022-10-26T10:05:40;13.93;;;7.73;;
13197;SDS011;6664;52.514;13.440;2022-10-26T10:08:41;8.70;;;7.07;;
13197;SDS011;6664;52.514;13.440;2022-10-26T10:11:35;16.30;;;7.97;;
13197;SDS011;6664;52.514;13.440;2022-10-26T10:14:29;11.60;;;7.33;;
13197;SDS011;6664;52.514;13.440;2022-10-26T10:17:22;11.70;;;7.20;;
13197;SDS011;6664;52.514;13.440;2022-10-26T10:20:16;17.93;;;8.00;;
13197;SDS011;6664;52.514;13.440;2022-10-26T10:23:10;11.40;;;6.97;;
13197;SDS011;6664;52.514;13.440;2022-10-26T10:26:15;11.20;;;6.53;;
13197;SDS011;6664;52.514;13.440;2022-10-26T10:29:01;11.50;;;6.50;;
13197;SDS011;6664;52.514;13.440;2022-10-26T10:31:47;9.20;;;6.00;;
13197;SDS011;6664;52.514;13.440;2022-10-26T10:34:40;5.80;;;5.20;;
13197;SDS011;6664;52.514;13.440;2022-10-26T10:37:36;11.50;;;5.67;;
13197;SDS011;6664;52.514;13.440;2022-10-26T10:40:28;12.70;;;4.93;;
13197;SDS011;6664;52.514;13.440;2022-10-26T10:43:15;6.43;;;4.73;;
13197;SDS011;6664;52.514;13.440;2022-10-26T10:46:01;5.97;;;4.10;;
13197;SDS011;6664;52.514;13.440;2022-10-26T10:49:00;9.00;;;4.10;;
13197;SDS011;6664;52.514;13.440;2022-10-26T10:51:49;8.73;;;3.90;;
13197;SDS011;6664;52.514;13.440;2022-10-26T10:54:36;7.93;;;3.77;;
13197;SDS011;6664;52.514;13.440;2022-10-26T10:57:28;4.03;;;2.67;;
13197;SDS011;6664;52.514;13.440;2022-10-26T11:00:23;14.57;;;2.90;;
13197;SDS011;6664;52.514;13.440;2022-10-26T11:06:27;5.10;;;2.37;;
13197;SDS011;6664;52.514;13.440;2022-10-26T11:09:16;5.93;;;2.80;;
13197;SDS011;6664;52.514;13.440;2022-10-26T11:12:08;2.87;;;2.27;;
13197;SDS011;6664;52.514;13.440;2022-10-26T11:15:00;2.77;;;2.07;;
13197;SDS011;6664;52.514;13.440;2022-10-26T11:17:59;4.40;;;2.53;;
13197;SDS011;6664;52.514;13.440;2022-10-26T11:21:11;4.57;;;2.30;;
13197;SDS011;6664;52.514;13.440;2022-10-26T11:24:35;2.40;;;1.80;;
13197;SDS011;6664;52.514;13.440;2022-10-26T11:30:17;7.53;;;2.20;;
13197;SDS011;6664;52.514;13.440;2022-10-26T11:33:13;2.00;;;1.90;;
13197;SDS011;6664;52.514;13.440;2022-10-26T11:36:04;2.20;;;2.10;;
13197;SDS011;6664;52.514;13.440;2022-10-26T11:39:13;5.43;;;1.70;;
13197;SDS011;6664;52.514;13.440;2022-10-26T11:42:10;6.30;;;1.70;;
13197;SDS011;6664;52.514;13.440;2022-10-26T11:48:19;3.53;;;1.53;;
13197;SDS011;6664;52.514;13.440;2022-10-26T11:51:15;3.63;;;2.50;;
13197;SDS011;6664;52.514;13.440;2022-10-26T11:57:08;3.17;;;2.10;;
13197;SDS011;6664;52.514;13.440;2022-10-26T12:00:05;3.90;;;2.23;;
13197;SDS011;6664;52.514;13.440;2022-10-26T12:03:12;3.73;;;1.67;;
13197;SDS011;6664;52.514;13.440;2022-10-26T12:06:02;5.20;;;1.63;;
13197;SDS011;6664;52.514;13.440;2022-10-26T12:09:00;2.20;;;1.80;;
13197;SDS011;6664;52.514;13.440;2022-10-26T12:14:51;1.80;;;1.70;;
13197;SDS011;6664;52.514;13.440;2022-10-26T12:21:15;3.53;;;1.50;;
13197;SDS011;6664;52.514;13.440;2022-10-26T12:24:23;3.33;;;1.50;;
13197;SDS011;6664;52.514;13.440;2022-10-26T12:33:26;1.93;;;1.40;;
13197;SDS011;6664;52.514;13.440;2022-10-26T12:45:18;1.10;;;1.00;;
13197;SDS011;6664;52.514;13.440;2022-10-26T12:48:09;2.07;;;1.27;;
13197;SDS011;6664;52.514;13.440;2022-10-26T12:57:30;1.47;;;1.23;;
13197;SDS011;6664;52.514;13.440;2022-10-26T13:00:24;2.53;;;1.40;;
13197;SDS011;6664;52.514;13.440;2022-10-26T13:09:24;1.13;;;1.13;;
13197;SDS011;6664;52.514;13.440;2022-10-26T13:12:13;3.63;;;1.90;;
13197;SDS011;6664;52.514;13.440;2022-10-26T13:15:05;4.30;;;1.30;;
13197;SDS011;6664;52.514;13.440;2022-10-26T13:18:15;3.23;;;1.40;;
13197;SDS011;6664;52.514;13.440;2022-10-26T13:21:07;3.40;;;1.57;;
13197;SDS011;6664;52.514;13.440;2022-10-26T13:24:01;2.97;;;1.47;;
13197;SDS011;6664;52.514;13.440;2022-10-26T13:32:50;4.20;;;1.87;;
13197;SDS011;6664;52.514;13.440;2022-10-26T13:35:41;1.70;;;1.40;;
13197;SDS011;6664;52.514;13.440;2022-10-26T13:38:29;1.63;;;1.30;;
13197;SDS011;6664;52.514;13.440;2022-10-26T13:41:34;3.13;;;1.30;;
13197;SDS011;6664;52.514;13.440;2022-10-26T13:47:30;2.00;;;1.30;;
13197;SDS011;6664;52.514;13.440;2022-10-26T13:50:26;3.53;;;1.37;;
13197;SDS011;6664;52.514;13.440;2022-10-26T13:53:19;1.77;;;1.47;;
13197;SDS011;6664;52.514;13.440;2022-10-26T13:56:26;4.00;;;1.47;;
13197;SDS011;6664;52.514;13.440;2022-10-26T13:59:16;2.37;;;1.47;;
13197;SDS011;6664;52.514;13.440;2022-10-26T14:02:06;2.30;;;1.10;;
13197;SDS011;6664;52.514;13.440;2022-10-26T14:05:00;3.63;;;1.80;;
13197;SDS011;6664;52.514;13.440;2022-10-26T14:07:52;2.93;;;1.60;;
13197;SDS011;6664;52.514;13.440;2022-10-26T14:10:44;5.40;;;1.63;;
13197;SDS011;6664;52.514;13.440;2022-10-26T14:13:38;4.57;;;2.13;;
13197;SDS011;6664;52.514;13.440;2022-10-26T14:16:28;7.03;;;1.80;;
13197;SDS011;6664;52.514;13.440;2022-10-26T14:19:18;2.13;;;1.97;;
13197;SDS011;6664;52.514;13.440;2022-10-26T14:22:13;2.40;;;1.70;;
13197;SDS011;6664;52.514;13.440;2022-10-26T14:25:22;2.47;;;1.40;;
13197;SDS011;6664;52.514;13.440;2022-10-26T14:28:47;4.00;;;1.80;;
13197;SDS011;6664;52.514;13.440;2022-10-26T14:31:35;3.37;;;1.77;;
13197;SDS011;6664;52.514;13.440;2022-10-26T14:34:22;2.70;;;1.87;;
13197;SDS011;6664;52.514;13.440;2022-10-26T14:37:08;5.77;;;2.33;;
13197;SDS011;6664;52.514;13.440;2022-10-26T14:39:55;5.00;;;2.47;;
13197;SDS011;6664;52.514;13.440;2022-10-26T14:42:41;3.70;;;2.90;;
13197;SDS011;6664;52.514;13.440;2022-10-26T14:45:35;3.33;;;2.17;;
13197;SDS011;6664;52.514;13.440;2022-10-26T14:48:38;3.30;;;1.90;;
13197;SDS011;6664;52.514;13.440;2022-10-26T14:51:34;3.47;;;1.90;;
13197;SDS011;6664;52.514;13.440;2022-10-26T14:54:26;4.20;;;1.70;;
13197;SDS011;6664;52.514;13.440;2022-10-26T15:00:23;1.70;;;1.30;;
13197;SDS011;6664;52.514;13.440;2022-10-26T15:03:13;2.33;;;1.50;;
13197;SDS011;6664;52.514;13.440;2022-10-26T15:09:55;8.00;;;2.17;;
13197;SDS011;6664;52.514;13.440;2022-10-26T15:12:33;7.30;;;1.90;;
13197;SDS011;6664;52.514;13.440;2022-10-26T15:15:21;4.53;;;1.67;;
13197;SDS011;6664;52.514;13.440;2022-10-26T15:18:17;3.03;;;1.77;;
13197;SDS011;6664;52.514;13.440;2022-10-26T15:21:23;7.90;;;2.07;;
13197;SDS011;6664;52.514;13.440;2022-10-26T15:27:22;3.47;;;1.63;;
13197;SDS011;6664;52.514;13.440;2022-10-26T15:30:20;4.33;;;2.17;;
13197;SDS011;6664;52.514;13.440;2022-10-26T15:33:16;4.70;;;2.00;;
13197;SDS011;6664;52.514;13.440;2022-10-26T15:39:00;2.20;;;2.00;;
13197;SDS011;6664;52.514;13.440;2022-10-26T15:41:46;4.37;;;2.30;;
13197;SDS011;6664;52.514;13.440;2022-10-26T15:44:36;4.97;;;1.80;;
13197;SDS011;6664;52.514;13.440;2022-10-26T15:47:21;4.90;;;2.03;;
13197;SDS011;6664;52.514;13.440;2022-10-26T15:50:16;2.57;;;1.90;;
13197;SDS011;6664;52.514;13.440;2022-10-26T15:53:07;3.43;;;1.43;;
13197;SDS011;6664;52.514;13.440;2022-10-26T15:56:01;9.73;;;2.70;;
13197;SDS011;6664;52.514;13.440;2022-10-26T15:58:55;9.87;;;2.20;;
13197;SDS011;6664;52.514;13.440;2022-10-26T16:01:41;3.87;;;2.27;;
13197;SDS011;6664;52.514;13.440;2022-10-26T16:04:30;3.23;;;2.10;;
13197;SDS011;6664;52.514;13.440;2022-10-26T16:07:19;3.37;;;2.10;;
13197;SDS011;6664;52.514;13.440;2022-10-26T16:10:13;5.27;;;2.60;;
13197;SDS011;6664;52.514;13.440;2022-10-26T16:13:12;3.30;;;2.50;;
13197;SDS011;6664;52.514;13.440;2022-10-26T16:15:58;5.03;;;2.53;;
13197;SDS011;6664;52.514;13.440;2022-10-26T16:18:50;6.47;;;2.77;;
13197;SDS011;6664;52.514;13.440;2022-10-26T16:21:59;4.23;;;2.50;;
13197;SDS011;6664;52.514;13.440;2022-10-26T16:24:46;4.93;;;3.03;;
13197;SDS011;6664;52.514;13.440;2022-10-26T16:27:31;3.47;;;2.97;;
13197;SDS011;6664;52.514;13.440;2022-10-26T16:30:17;10.07;;;3.10;;
13197;SDS011;6664;52.514;13.440;2022-10-26T16:33:03;2.63;;;2.33;;
13197;SDS011;6664;52.514;13.440;2022-10-26T16:35:53;8.43;;;2.50;;
13197;SDS011;6664;52.514;13.440;2022-10-26T16:38:44;6.90;;;4.80;;
13197;SDS011;6664;52.514;13.440;2022-10-26T16:41:30;6.37;;;3.70;;
13197;SDS011;6664;52.514;13.440;2022-10-26T16:44:15;8.23;;;3.93;;
13197;SDS011;6664;52.514;13.440;2022-10-26T16:47:01;4.83;;;3.30;;
13197;SDS011;6664;52.514;13.440;2022-10-26T16:49:46;6.70;;;3.03;;
13197;SDS011;6664;52.514;13.440;2022-10-26T16:52:35;5.50;;;2.53;;
13197;SDS011;6664;52.514;13.440;2022-10-26T16:55:23;4.53;;;3.37;;
13197;SDS011;6664;52.514;13.440;2022-10-26T16:58:09;7.00;;;3.23;;
13197;SDS011;6664;52.514;13.440;2022-10-26T17:00:54;4.70;;;2.53;;
13197;SDS011;6664;52.514;13.440;2022-10-26T17:03:40;3.13;;;2.30;;
13197;SDS011;6664;52.514;13.440;2022-10-26T17:06:25;4.63;;;2.30;;
13197;SDS011;6664;52.514;13.440;2022-10-26T17:09:11;5.07;;;3.10;;
13197;SDS011;6664;52.514;13.440;2022-10-26T17:11:57;5.80;;;3.30;;
13197;SDS011;6664;52.514;13.440;2022-10-26T17:14:46;6.13;;;3.23;;
13197;SDS011;6664;52.514;13.440;2022-10-26T17:17:34;4.03;;;3.20;;
13197;SDS011;6664;52.514;13.440;2022-10-26T17:20:21;4.40;;;3.10;;
13197;SDS011;6664;52.514;13.440;2022-10-26T17:23:09;6.27;;;2.67;;
13197;SDS011;6664;52.514;13.440;2022-10-26T17:25:57;6.30;;;2.50;;
13197;SDS011;6664;52.514;13.440;2022-10-26T17:28:49;11.30;;;3.20;;
13197;SDS011;6664;52.514;13.440;2022-10-26T17:31:36;4.20;;;2.83;;
13197;SDS011;6664;52.514;13.440;2022-10-26T17:34:21;8.60;;;3.13;;
13197;SDS011;6664;52.514;13.440;2022-10-26T17:37:09;8.27;;;3.57;;
13197;SDS011;6664;52.514;13.440;2022-10-26T17:39:54;5.00;;;3.30;;
13197;SDS011;6664;52.514;13.440;2022-10-26T17:42:39;8.73;;;3.37;;
13197;SDS011;6664;52.514;13.440;2022-10-26T17:45:25;3.40;;;3.10;;
13197;SDS011;6664;52.514;13.440;2022-10-26T17:48:11;4.40;;;3.10;;
13197;SDS011;6664;52.514;13.440;2022-10-26T17:50:59;3.77;;;3.47;;
13197;SDS011;6664;52.514;13.440;2022-10-26T17:53:50;6.10;;;2.97;;
13197;SDS011;6664;52.514;13.440;2022-10-26T17:56:36;6.30;;;2.67;;
13197;SDS011;6664;52.514;13.440;2022-10-26T17:59:30;6.30;;;2.90;;
13197;SDS011;6664;52.514;13.440;2022-10-26T18:02:15;5.73;;;3.10;;
13197;SDS011;6664;52.514;13.440;2022-10-26T18:05:04;4.50;;;2.50;;
13197;SDS011;6664;52.514;13.440;2022-10-26T18:07:51;4.73;;;3.80;;
13197;SDS011;6664;52.514;13.440;2022-10-26T18:10:37;3.40;;;3.07;;
13197;SDS011;6664;52.514;13.440;2022-10-26T18:13:23;3.90;;;2.90;;
13197;SDS011;6664;52.514;13.440;2022-10-26T18:16:13;13.73;;;3.30;;
13197;SDS011;6664;52.514;13.440;2022-10-26T18:19:06;4.07;;;3.20;;
13197;SDS011;6664;52.514;13.440;2022-10-26T18:21:51;5.27;;;3.30;;
13197;SDS011;6664;52.514;13.440;2022-10-26T18:24:37;6.77;;;3.50;;
13197;SDS011;6664;52.514;13.440;2022-10-26T18:27:23;5.93;;;3.40;;
13197;SDS011;6664;52.514;13.440;2022-10-26T18:30:08;5.60;;;3.83;;
13197;SDS011;6664;52.514;13.440;2022-10-26T18:32:57;5.27;;;3.90;;
13197;SDS011;6664;52.514;13.440;2022-10-26T18:35:43;5.77;;;4.10;;
13197;SDS011;6664;52.514;13.440;2022-10-26T18:38:32;7.70;;;4.00;;
13197;SDS011;6664;52.514;13.440;2022-10-26T18:41:19;5.53;;;3.83;;
13197;SDS011;6664;52.514;13.440;2022-10-26T18:44:07;4.80;;;3.90;;
13197;SDS011;6664;52.514;13.440;2022-10-26T18:46:53;9.43;;;4.83;;
13197;SDS011;6664;52.514;13.440;2022-10-26T18:49:39;6.70;;;4.20;;
13197;SDS011;6664;52.514;13.440;2022-10-26T18:52:25;10.03;;;4.67;;
13197;SDS011;6664;52.514;13.440;2022-10-26T18:55:11;8.67;;;4.80;;
13197;SDS011;6664;52.514;13.440;2022-10-26T18:57:57;7.23;;;4.80;;
13197;SDS011;6664;52.514;13.440;2022-10-26T19:00:43;10.73;;;4.47;;
13197;SDS011;6664;52.514;13.440;2022-10-26T19:03:31;5.90;;;4.47;;
13197;SDS011;6664;52.514;13.440;2022-10-26T19:06:20;12.30;;;7.40;;
13197;SDS011;6664;52.514;13.440;2022-10-26T19:09:11;13.27;;;8.30;;
13197;SDS011;6664;52.514;13.440;2022-10-26T19:12:00;8.23;;;4.90;;
13197;SDS011;6664;52.514;13.440;2022-10-26T19:14:48;9.63;;;4.73;;
13197;SDS011;6664;52.514;13.440;2022-10-26T19:17:35;8.67;;;5.20;;